sensor_id;sensor_type;location;lat;lon;timestamp;pressure;altitude;pressure_sealevel;temperature;humidity
85406;BME280;76779;42.664;23.284;2024-02-21T15:42:52;95101.38;;;22.22;43.92
85406;BME280;76779;42.664;23.284;2024-02-21T15:45:19;95094.47;;;22.44;44.88
85406;BME280;76779;42.664;23.284;2024-02-21T15:47:44;95104.47;;;22.53;43.69
85406;BME280;76779;42.664;23.284;2024-02-21T15:50:10;95099.50;;;22.51;42.61
85406;BME280;76779;42.664;23.284;2024-02-21T15:52:36;95096.00;;;22.59;43.43
85406;BME280;76779;42.664;23.284;2024-02-21T15:55:04;95096.78;;;22.67;43.19
85406;BME280;76779;42.664;23.284;2024-02-21T15:57:29;95096.06;;;22.67;43.53
85406;BME280;76779;42.664;23.284;2024-02-21T15:59:57;95096.88;;;22.76;43.72
85406;BME280;76779;42.664;23.284;2024-02-21T16:02:23;95101.19;;;22.85;44.11
85406;BME280;76779;42.664;23.284;2024-02-21T16:04:49;95101.91;;;22.87;44.44
85406;BME280;76779;42.664;23.284;2024-02-21T16:07:15;95104.03;;;22.89;44.59
85406;BME280;76779;42.664;23.284;2024-02-21T16:09:40;95117.56;;;22.90;44.65
85406;BME280;76779;42.664;23.284;2024-02-21T16:12:09;95106.22;;;22.96;45.79
85406;BME280;76779;42.664;23.284;2024-02-21T16:14:35;95104.78;;;22.93;45.39
85406;BME280;76779;42.664;23.284;2024-02-21T16:17:02;95110.53;;;22.99;46.11
85406;BME280;76779;42.664;23.284;2024-02-21T16:19:33;95114.72;;;22.92;46.41
85406;BME280;76779;42.664;23.284;2024-02-21T16:21:59;95117.63;;;22.98;46.75
85406;BME280;76779;42.664;23.284;2024-02-21T16:24:26;95126.16;;;23.00;45.84
85406;BME280;76779;42.664;23.284;2024-02-21T16:26:51;95124.75;;;23.03;46.30
85406;BME280;76779;42.664;23.284;2024-02-21T16:29:17;95134.03;;;23.06;47.02
85406;BME280;76779;42.664;23.284;2024-02-21T16:31:43;95139.03;;;23.11;47.73
85406;BME280;76779;42.664;23.284;2024-02-21T16:34:08;95140.47;;;23.14;46.84
85406;BME280;76779;42.664;23.284;2024-02-21T16:36:34;95144.72;;;23.11;49.84
85406;BME280;76779;42.664;23.284;2024-02-21T16:38:59;95149.03;;;23.18;49.29
85406;BME280;76779;42.664;23.284;2024-02-21T16:41:26;95146.19;;;23.18;49.14
85406;BME280;76779;42.664;23.284;2024-02-21T16:43:52;95149.72;;;23.17;49.18
85406;BME280;76779;42.664;23.284;2024-02-21T16:46:18;95151.09;;;23.12;48.89
85406;BME280;76779;42.664;23.284;2024-02-21T16:48:45;95146.13;;;23.06;48.71
85406;BME280;76779;42.664;23.284;2024-02-21T16:51:11;95148.91;;;23.00;48.55
85406;BME280;76779;42.664;23.284;2024-02-21T16:53:37;95157.41;;;22.94;48.32
85406;BME280;76779;42.664;23.284;2024-02-21T16:56:03;95156.00;;;22.95;48.01
85406;BME280;76779;42.664;23.284;2024-02-21T16:58:29;95155.97;;;22.93;48.07
85406;BME280;76779;42.664;23.284;2024-02-21T17:01:05;95163.81;;;22.97;47.96
85406;BME280;76779;42.664;23.284;2024-02-21T17:03:34;95168.78;;;22.96;47.82
85406;BME280;76779;42.664;23.284;2024-02-21T17:06:01;95167.34;;;22.93;47.40
85406;BME280;76779;42.664;23.284;2024-02-21T17:08:27;95174.47;;;22.96;47.71
85406;BME280;76779;42.664;23.284;2024-02-21T17:10:54;95175.22;;;23.01;47.66
85406;BME280;76779;42.664;23.284;2024-02-21T17:13:19;95181.63;;;23.07;47.56
85406;BME280;76779;42.664;23.284;2024-02-21T17:15:46;95183.09;;;23.12;47.72
85406;BME280;76779;42.664;23.284;2024-02-21T17:18:13;95180.28;;;23.14;49.25
85406;BME280;76779;42.664;23.284;2024-02-21T17:20:38;95176.72;;;23.16;50.08
85406;BME280;76779;42.664;23.284;2024-02-21T17:23:04;95176.75;;;23.18;49.59
85406;BME280;76779;42.664;23.284;2024-02-21T17:25:30;95178.16;;;23.19;50.42
85406;BME280;76779;42.664;23.284;2024-02-21T17:27:56;95192.38;;;23.17;48.72
85406;BME280;76779;42.664;23.284;2024-02-21T17:30:21;95191.66;;;23.16;48.73
85406;BME280;76779;42.664;23.284;2024-02-21T17:32:47;95188.78;;;23.12;49.99
85406;BME280;76779;42.664;23.284;2024-02-21T17:35:12;95187.38;;;23.13;50.25
85406;BME280;76779;42.664;23.284;2024-02-21T17:37:39;95203.06;;;23.18;50.53
85406;BME280;76779;42.664;23.284;2024-02-21T17:40:04;95203.75;;;23.17;50.71
85406;BME280;76779;42.664;23.284;2024-02-21T17:42:33;95198.81;;;23.22;50.64
85406;BME280;76779;42.664;23.284;2024-02-21T17:44:59;95208.81;;;23.27;50.49
85406;BME280;76779;42.664;23.284;2024-02-21T17:47:24;95211.63;;;23.25;50.49
85406;BME280;76779;42.664;23.284;2024-02-21T17:49:50;95215.19;;;23.25;50.19
85406;BME280;76779;42.664;23.284;2024-02-21T17:52:15;95215.16;;;23.23;50.35
85406;BME280;76779;42.664;23.284;2024-02-21T17:54:41;95215.88;;;23.24;50.23
85406;BME280;76779;42.664;23.284;2024-02-21T17:57:10;95218.03;;;23.25;50.13
85406;BME280;76779;42.664;23.284;2024-02-21T17:59:41;95213.06;;;23.26;50.15
85406;BME280;76779;42.664;23.284;2024-02-21T18:02:08;95221.59;;;23.28;50.25
85406;BME280;76779;42.664;23.284;2024-02-21T18:04:34;95218.75;;;23.28;49.79
85406;BME280;76779;42.664;23.284;2024-02-21T18:07:00;95217.31;;;23.23;50.35
85406;BME280;76779;42.664;23.284;2024-02-21T18:09:26;95221.59;;;23.28;50.77
85406;BME280;76779;42.664;23.284;2024-02-21T18:11:51;95222.28;;;23.24;52.80
85406;BME280;76779;42.664;23.284;2024-02-21T18:14:17;95215.91;;;23.26;55.73
85406;BME280;76779;42.664;23.284;2024-02-21T18:16:42;95222.31;;;23.26;54.10
85406;BME280;76779;42.664;23.284;2024-02-21T18:19:08;95225.19;;;23.30;56.61
85406;BME280;76779;42.664;23.284;2024-02-21T18:21:33;95219.50;;;23.30;60.69
85406;BME280;76779;42.664;23.284;2024-02-21T18:23:59;95226.63;;;23.33;57.23
85406;BME280;76779;42.664;23.284;2024-02-21T18:26:24;95226.66;;;23.39;62.65
85406;BME280;76779;42.664;23.284;2024-02-21T18:28:50;95228.84;;;23.43;62.95
85406;BME280;76779;42.664;23.284;2024-02-21T18:31:17;95231.63;;;23.39;61.50
85406;BME280;76779;42.664;23.284;2024-02-21T18:33:44;95230.25;;;23.42;61.97
85406;BME280;76779;42.664;23.284;2024-02-21T18:36:11;95238.09;;;23.43;64.06
85406;BME280;76779;42.664;23.284;2024-02-21T18:38:36;95233.19;;;23.50;65.89
85406;BME280;76779;42.664;23.284;2024-02-21T18:41:02;95211.09;;;23.48;63.20
85406;BME280;76779;42.664;23.284;2024-02-21T18:43:28;95236.06;;;23.58;61.22
85406;BME280;76779;42.664;23.284;2024-02-21T18:45:53;95234.69;;;23.67;60.55
85406;BME280;76779;42.664;23.284;2024-02-21T18:51:40;95228.34;;;23.77;58.21
85406;BME280;76779;42.664;23.284;2024-02-21T18:54:06;95233.28;;;23.68;59.25
85406;BME280;76779;42.664;23.284;2024-02-21T18:56:31;95228.25;;;23.60;57.53
85406;BME280;76779;42.664;23.284;2024-02-21T18:58:58;95229.69;;;23.63;56.81
85406;BME280;76779;42.664;23.284;2024-02-21T19:01:23;95230.38;;;23.62;56.56
85406;BME280;76779;42.664;23.284;2024-02-21T19:03:49;95234.66;;;23.61;55.83
85406;BME280;76779;42.664;23.284;2024-02-21T19:06:14;95233.22;;;23.60;55.43
85406;BME280;76779;42.664;23.284;2024-02-21T19:08:43;95226.84;;;23.61;54.53
85406;BME280;76779;42.664;23.284;2024-02-21T19:11:09;95219.69;;;23.56;54.81
85406;BME280;76779;42.664;23.284;2024-02-21T19:13:35;95228.94;;;23.57;53.58
85406;BME280;76779;42.664;23.284;2024-02-21T19:16:01;95223.97;;;23.59;53.46
85406;BME280;76779;42.664;23.284;2024-02-21T19:18:27;95223.25;;;23.57;52.66
85406;BME280;76779;42.664;23.284;2024-02-21T19:20:53;95221.09;;;23.55;51.97
85406;BME280;76779;42.664;23.284;2024-02-21T19:23:18;95227.50;;;23.58;51.73
85406;BME280;76779;42.664;23.284;2024-02-21T19:25:45;95222.53;;;23.58;51.14
85406;BME280;76779;42.664;23.284;2024-02-21T19:28:10;95226.09;;;23.57;50.71
85406;BME280;76779;42.664;23.284;2024-02-21T19:30:40;95228.22;;;23.56;50.36
85406;BME280;76779;42.664;23.284;2024-02-21T19:33:05;95230.34;;;23.56;49.96
85406;BME280;76779;42.664;23.284;2024-02-21T19:35:32;95228.19;;;23.54;49.80
85406;BME280;76779;42.664;23.284;2024-02-21T19:37:59;95241.03;;;23.53;49.46
85406;BME280;76779;42.664;23.284;2024-02-21T19:40:28;95238.88;;;23.52;49.54
85406;BME280;76779;42.664;23.284;2024-02-21T19:42:54;95235.38;;;23.61;49.62
85406;BME280;76779;42.664;23.284;2024-02-21T19:45:20;95235.41;;;23.70;49.22
85406;BME280;76779;42.664;23.284;2024-02-21T19:47:46;95235.41;;;23.68;49.39
85406;BME280;76779;42.664;23.284;2024-02-21T19:50:11;95230.44;;;23.70;49.10
85406;BME280;76779;42.664;23.284;2024-02-21T19:52:40;95236.88;;;23.73;48.95
85406;BME280;76779;42.664;23.284;2024-02-21T19:55:07;95227.59;;;23.70;48.76
85406;BME280;76779;42.664;23.284;2024-02-21T19:57:33;95237.56;;;23.71;48.97
85406;BME280;76779;42.664;23.284;2024-02-21T19:59:59;95227.63;;;23.78;48.05
85406;BME280;76779;42.664;23.284;2024-02-21T20:02:25;95230.44;;;23.70;48.65
85406;BME280;76779;42.664;23.284;2024-02-21T20:04:51;95226.16;;;23.65;47.90
85406;BME280;76779;42.664;23.284;2024-02-21T20:07:16;95229.69;;;23.61;48.65
85406;BME280;76779;42.664;23.284;2024-02-21T20:09:42;95233.22;;;23.62;48.71
85406;BME280;76779;42.664;23.284;2024-02-21T20:12:07;95233.22;;;23.62;48.57
85406;BME280;76779;42.664;23.284;2024-02-21T20:14:33;95228.97;;;23.61;48.02
85406;BME280;76779;42.664;23.284;2024-02-21T20:16:59;95221.81;;;23.56;48.19
85406;BME280;76779;42.664;23.284;2024-02-21T20:19:24;95208.31;;;23.56;47.73
85406;BME280;76779;42.664;23.284;2024-02-21T20:21:50;95218.25;;;23.55;48.07
85406;BME280;76779;42.664;23.284;2024-02-21T20:24:15;95218.25;;;23.53;48.31
85406;BME280;76779;42.664;23.284;2024-02-21T20:26:42;95206.16;;;23.53;48.52
85406;BME280;76779;42.664;23.284;2024-02-21T20:29:10;95204.72;;;23.52;48.22
85406;BME280;76779;42.664;23.284;2024-02-21T20:31:41;95192.63;;;23.51;47.90
85406;BME280;76779;42.664;23.284;2024-02-21T20:34:14;95196.19;;;23.50;48.38
85406;BME280;76779;42.664;23.284;2024-02-21T20:36:44;95198.31;;;23.49;48.07
85406;BME280;76779;42.664;23.284;2024-02-21T20:39:10;95190.50;;;23.50;48.49
85406;BME280;76779;42.664;23.284;2024-02-21T20:41:36;95180.53;;;23.49;48.63
85406;BME280;76779;42.664;23.284;2024-02-21T20:44:05;95172.69;;;23.47;48.55
85406;BME280;76779;42.664;23.284;2024-02-21T20:46:31;95178.38;;;23.45;48.44
85406;BME280;76779;42.664;23.284;2024-02-21T20:48:57;95162.00;;;23.44;48.82
85406;BME280;76779;42.664;23.284;2024-02-21T20:51:23;95165.56;;;23.44;48.58
85406;BME280;76779;42.664;23.284;2024-02-21T20:53:48;95159.19;;;23.46;48.86
85406;BME280;76779;42.664;23.284;2024-02-21T20:56:14;95165.53;;;23.42;49.07
85406;BME280;76779;42.664;23.284;2024-02-21T20:58:41;95166.94;;;23.41;49.04
85406;BME280;76779;42.664;23.284;2024-02-21T21:01:07;95164.81;;;23.42;48.92
85406;BME280;76779;42.664;23.284;2024-02-21T21:03:32;95164.06;;;23.39;48.76
85406;BME280;76779;42.664;23.284;2024-02-21T21:05:59;95164.06;;;23.37;48.76
85406;BME280;76779;42.664;23.284;2024-02-21T21:08:24;95149.13;;;23.39;48.55
85406;BME280;76779;42.664;23.284;2024-02-21T21:10:50;95161.22;;;23.37;48.48
85406;BME280;76779;42.664;23.284;2024-02-21T21:13:15;95159.06;;;23.34;48.89
85406;BME280;76779;42.664;23.284;2024-02-21T21:15:41;95159.78;;;23.30;48.83
85406;BME280;76779;42.664;23.284;2024-02-21T21:18:06;95161.88;;;23.28;48.62
85406;BME280;76779;42.664;23.284;2024-02-21T21:20:32;95161.88;;;23.28;48.68
85406;BME280;76779;42.664;23.284;2024-02-21T21:22:59;95173.97;;;23.28;48.45
85406;BME280;76779;42.664;23.284;2024-02-21T21:25:25;95171.16;;;23.30;48.19
85406;BME280;76779;42.664;23.284;2024-02-21T21:27:51;95167.59;;;23.32;47.98
85406;BME280;76779;42.664;23.284;2024-02-21T21:30:17;95168.31;;;23.30;47.79
85406;BME280;76779;42.664;23.284;2024-02-21T21:32:45;95155.47;;;23.27;47.83
85406;BME280;76779;42.664;23.284;2024-02-21T21:35:10;95165.44;;;23.28;47.61
85406;BME280;76779;42.664;23.284;2024-02-21T21:37:36;95162.63;;;23.30;47.43
85406;BME280;76779;42.664;23.284;2024-02-21T21:40:03;95170.44;;;23.32;47.70
85406;BME280;76779;42.664;23.284;2024-02-21T21:42:29;95165.47;;;23.30;47.68
85406;BME280;76779;42.664;23.284;2024-02-21T21:44:54;95167.56;;;23.26;47.77
85406;BME280;76779;42.664;23.284;2024-02-21T21:47:20;95178.91;;;23.24;47.52
85406;BME280;76779;42.664;23.284;2024-02-21T21:49:45;95164.66;;;23.19;48.12
85406;BME280;76779;42.664;23.284;2024-02-21T21:52:11;95167.50;;;23.19;47.87
85406;BME280;76779;42.664;23.284;2024-02-21T21:54:37;95176.06;;;23.24;48.04
85406;BME280;76779;42.664;23.284;2024-02-21T21:57:04;95172.53;;;23.25;47.56
85406;BME280;76779;42.664;23.284;2024-02-21T21:59:29;95178.94;;;23.26;47.79
85406;BME280;76779;42.664;23.284;2024-02-21T22:01:55;95177.50;;;23.25;47.39
85406;BME280;76779;42.664;23.284;2024-02-21T22:04:20;95158.25;;;23.19;47.25
85406;BME280;76779;42.664;23.284;2024-02-21T22:06:46;95176.09;;;23.28;47.42
85406;BME280;76779;42.664;23.284;2024-02-21T22:09:11;95175.38;;;23.25;47.35
85406;BME280;76779;42.664;23.284;2024-02-21T22:11:37;95164.00;;;23.25;47.06
85406;BME280;76779;42.664;23.284;2024-02-21T22:14:03;95160.41;;;23.21;47.70
85406;BME280;76779;42.664;23.284;2024-02-21T22:16:28;95154.00;;;23.20;47.51
85406;BME280;76779;42.664;23.284;2024-02-21T22:18:54;95160.44;;;23.23;47.03
85406;BME280;76779;42.664;23.284;2024-02-21T22:21:19;95156.16;;;23.22;47.12
85406;BME280;76779;42.664;23.284;2024-02-21T22:23:45;95163.28;;;23.23;47.08
85406;BME280;76779;42.664;23.284;2024-02-21T22:26:11;95154.72;;;23.21;47.35
85406;BME280;76779;42.664;23.284;2024-02-21T22:28:37;95161.09;;;23.19;47.51
85406;BME280;76779;42.664;23.284;2024-02-21T22:31:03;95163.28;;;23.23;47.17
85406;BME280;76779;42.664;23.284;2024-02-21T22:33:28;95165.41;;;23.22;47.62
85406;BME280;76779;42.664;23.284;2024-02-21T22:35:54;95154.72;;;23.21;47.32
85406;BME280;76779;42.664;23.284;2024-02-21T22:38:19;95154.03;;;23.22;47.65
85406;BME280;76779;42.664;23.284;2024-02-21T22:40:45;95159.00;;;23.24;47.28
85406;BME280;76779;42.664;23.284;2024-02-21T22:43:10;95158.97;;;23.19;47.63
85406;BME280;76779;42.664;23.284;2024-02-21T22:45:36;95161.13;;;23.21;47.71
85406;BME280;76779;42.664;23.284;2024-02-21T22:48:01;95157.56;;;23.18;47.38
85406;BME280;76779;42.664;23.284;2024-02-21T22:50:27;95154.72;;;23.21;47.49
85406;BME280;76779;42.664;23.284;2024-02-21T22:52:52;95164.66;;;23.19;47.41
85406;BME280;76779;42.664;23.284;2024-02-21T22:55:18;95166.81;;;23.21;47.38
85406;BME280;76779;42.664;23.284;2024-02-21T22:57:43;95160.41;;;23.21;47.64
85406;BME280;76779;42.664;23.284;2024-02-21T23:00:09;95165.41;;;23.22;47.63
85406;BME280;76779;42.664;23.284;2024-02-21T23:02:41;95166.81;;;23.21;47.14
85406;BME280;76779;42.664;23.284;2024-02-21T23:05:08;95161.84;;;23.22;47.16
85406;BME280;76779;42.664;23.284;2024-02-21T23:07:34;95163.94;;;23.19;47.40
85406;BME280;76779;42.664;23.284;2024-02-21T23:09:59;95159.69;;;23.20;47.55
85406;BME280;76779;42.664;23.284;2024-02-21T23:12:26;95163.94;;;23.19;47.36
85406;BME280;76779;42.664;23.284;2024-02-21T23:14:52;95163.94;;;23.19;47.09
85406;BME280;76779;42.664;23.284;2024-02-21T23:17:18;95163.94;;;23.19;46.70
85406;BME280;76779;42.664;23.284;2024-02-21T23:19:43;95161.81;;;23.17;46.88
85406;BME280;76779;42.664;23.284;2024-02-21T23:22:09;95161.78;;;23.15;46.84
85406;BME280;76779;42.664;23.284;2024-02-21T23:24:35;95161.78;;;23.15;46.64
85406;BME280;76779;42.664;23.284;2024-02-21T23:27:01;95163.22;;;23.16;46.65
85406;BME280;76779;42.664;23.284;2024-02-21T23:29:26;95163.22;;;23.14;46.52
85406;BME280;76779;42.664;23.284;2024-02-21T23:31:52;95163.22;;;23.14;46.08
85406;BME280;76779;42.664;23.284;2024-02-21T23:34:17;95157.53;;;23.14;46.10
85406;BME280;76779;42.664;23.284;2024-02-21T23:36:43;95157.50;;;23.12;46.02
85406;BME280;76779;42.664;23.284;2024-02-21T23:39:09;95154.66;;;23.12;46.28
85406;BME280;76779;42.664;23.284;2024-02-21T23:41:34;95157.50;;;23.12;46.00
85406;BME280;76779;42.664;23.284;2024-02-21T23:44:00;95148.97;;;23.12;45.94
85406;BME280;76779;42.664;23.284;2024-02-21T23:46:25;95141.88;;;23.13;45.88
85406;BME280;76779;42.664;23.284;2024-02-21T23:48:50;95146.88;;;23.15;46.11
85406;BME280;76779;42.664;23.284;2024-02-21T23:51:16;95139.03;;;23.15;45.95
85406;BME280;76779;42.664;23.284;2024-02-21T23:53:42;95134.78;;;23.16;45.67
85406;BME280;76779;42.664;23.284;2024-02-21T23:56:09;95131.94;;;23.16;45.92
85406;BME280;76779;42.664;23.284;2024-02-21T23:58:34;95136.94;;;23.18;45.44
